createdAt,value
2019-02-09T00:00:59.363Z,8.40
2019-02-09T00:03:29.243Z,8.40
2019-02-09T00:05:58.999Z,8.40
2019-02-09T00:08:28.619Z,8.40
2019-02-09T00:10:58.736Z,8.40
2019-02-09T00:13:28.533Z,8.40
2019-02-09T00:15:58.252Z,8.50
2019-02-09T00:18:27.934Z,8.50
2019-02-09T00:20:57.614Z,8.50
2019-02-09T00:23:27.197Z,8.40
2019-02-09T00:25:57.046Z,8.40
2019-02-09T00:28:26.752Z,8.40
2019-02-09T00:30:56.568Z,8.40
2019-02-09T00:33:26.149Z,8.30
2019-02-09T00:35:55.868Z,8.10
2019-02-09T00:38:25.515Z,8.00
2019-02-09T00:40:55.298Z,7.80
2019-02-09T00:43:25.444Z,7.80
2019-02-09T00:45:55.216Z,7.60
2019-02-09T00:48:25.393Z,7.50
2019-02-09T00:50:55.188Z,7.50
2019-02-09T00:53:24.825Z,7.40
2019-02-09T00:55:54.530Z,7.40
2019-02-09T00:58:24.383Z,7.40
2019-02-09T01:00:54.221Z,7.40
2019-02-09T01:03:24.272Z,7.50
2019-02-09T01:05:54.017Z,7.40
2019-02-09T01:08:24.008Z,7.40
2019-02-09T01:10:53.707Z,7.30
2019-02-09T01:13:23.468Z,7.40
2019-02-09T01:15:53.188Z,7.40
2019-02-09T01:18:22.835Z,7.40
2019-02-09T01:20:53.992Z,7.40
2019-02-09T01:23:23.681Z,7.50
2019-02-09T01:25:53.381Z,7.40
2019-02-09T01:28:23.202Z,7.30
2019-02-09T01:30:52.961Z,7.30
2019-02-09T01:33:22.607Z,7.30
2019-02-09T01:35:52.266Z,7.20
2019-02-09T01:38:21.989Z,7.10
2019-02-09T01:40:52.110Z,7.10
2019-02-09T01:43:21.756Z,7.10
2019-02-09T01:45:51.391Z,7.10
2019-02-09T01:48:21.005Z,7.10
2019-02-09T01:50:50.486Z,7.00
2019-02-09T01:53:20.295Z,7.00
2019-02-09T01:55:49.850Z,7.00
2019-02-09T01:58:19.402Z,6.90
2019-02-09T02:00:48.991Z,6.90
2019-02-09T02:03:18.752Z,6.90
2019-02-09T02:05:48.315Z,6.90
2019-02-09T02:08:19.634Z,6.90
2019-02-09T02:10:49.186Z,6.80
2019-02-09T02:13:18.903Z,6.80
2019-02-09T02:15:48.482Z,6.80
2019-02-09T02:18:18.337Z,6.80
2019-02-09T02:20:47.995Z,6.70
2019-02-09T02:23:17.670Z,6.70
2019-02-09T02:25:47.335Z,6.70
2019-02-09T02:28:17.197Z,6.70
2019-02-09T02:30:46.819Z,6.80
2019-02-09T02:33:16.440Z,6.80
2019-02-09T02:35:46.111Z,6.70
2019-02-09T02:38:15.607Z,6.80
2019-02-09T02:40:45.231Z,6.80
2019-02-09T02:43:14.864Z,6.80
2019-02-09T02:45:44.867Z,6.80
2019-02-09T02:48:14.450Z,6.80
2019-02-09T02:50:44.206Z,6.80
2019-02-09T02:53:13.736Z,6.80
2019-02-09T02:55:43.375Z,6.80
2019-02-09T02:58:13.007Z,6.80
2019-02-09T03:00:42.585Z,6.80
2019-02-09T03:03:12.223Z,6.70
2019-02-09T03:05:41.886Z,6.70
2019-02-09T03:08:11.537Z,6.70
2019-02-09T03:10:41.141Z,6.70
2019-02-09T03:13:10.864Z,6.70
2019-02-09T03:15:40.529Z,6.60
2019-02-09T03:18:10.154Z,6.60
2019-02-09T03:20:39.680Z,6.60
2019-02-09T03:23:09.212Z,6.60
2019-02-09T03:25:39.142Z,6.60
2019-02-09T03:28:08.696Z,6.60
2019-02-09T03:30:48.062Z,6.60
2019-02-09T03:33:09.993Z,6.60
2019-02-09T03:35:39.652Z,6.50
2019-02-09T03:38:09.431Z,6.60
2019-02-09T03:40:39.569Z,6.60
2019-02-09T03:43:09.430Z,6.60
2019-02-09T03:45:39.206Z,6.60
2019-02-09T03:48:08.920Z,6.60
2019-02-09T03:50:38.559Z,6.60
2019-02-09T03:53:08.210Z,6.60
2019-02-09T03:55:37.832Z,6.60
2019-02-09T03:58:07.812Z,6.70
2019-02-09T04:00:37.462Z,6.60
2019-02-09T04:03:07.755Z,6.60
2019-02-09T04:05:37.646Z,6.60
2019-02-09T04:08:07.538Z,6.60
2019-02-09T04:10:37.110Z,6.60
2019-02-09T04:13:07.091Z,6.60
2019-02-09T04:15:37.331Z,6.60
2019-02-09T04:18:06.955Z,6.60
2019-02-09T04:20:36.600Z,6.70
2019-02-09T04:23:06.313Z,6.70
2019-02-09T04:25:35.897Z,6.80
2019-02-09T04:28:05.709Z,6.80
2019-02-09T04:30:35.674Z,6.80
2019-02-09T04:33:05.855Z,6.90
2019-02-09T04:35:35.359Z,6.90
2019-02-09T04:38:04.955Z,6.90
2019-02-09T04:40:34.523Z,6.90
2019-02-09T04:43:04.089Z,6.90
2019-02-09T04:45:33.639Z,6.90
2019-02-09T04:48:03.298Z,6.90
2019-02-09T04:50:32.889Z,6.90
2019-02-09T04:53:02.594Z,6.90
2019-02-09T04:55:32.475Z,7.00
2019-02-09T04:58:01.981Z,7.00
2019-02-09T05:00:32.956Z,6.90
2019-02-09T05:03:02.621Z,7.00
2019-02-09T05:05:33.240Z,7.00
2019-02-09T05:08:02.891Z,7.10
2019-02-09T05:10:32.685Z,7.10
2019-02-09T05:13:02.315Z,7.20
2019-02-09T05:15:32.049Z,7.20
2019-02-09T05:18:02.580Z,7.30
2019-02-09T05:20:32.319Z,7.30
2019-02-09T05:23:02.153Z,7.30
2019-02-09T05:25:31.890Z,7.30
2019-02-09T05:28:01.448Z,7.30
2019-02-09T05:30:31.803Z,7.40
2019-02-09T05:33:01.419Z,7.50
2019-02-09T05:35:31.055Z,7.40
2019-02-09T05:38:00.778Z,7.50
2019-02-09T05:40:30.570Z,7.40
2019-02-09T05:43:00.299Z,7.40
2019-02-09T05:45:31.553Z,7.50
2019-02-09T05:48:01.131Z,7.50
2019-02-09T05:50:30.923Z,7.50
2019-02-09T05:53:00.504Z,7.40
2019-02-09T05:55:30.361Z,7.50
2019-02-09T05:57:59.933Z,7.50
2019-02-09T06:00:40.155Z,7.50
2019-02-09T06:03:09.704Z,7.50
2019-02-09T06:05:39.523Z,7.50
2019-02-09T06:08:09.281Z,7.60
2019-02-09T06:10:38.902Z,7.60
2019-02-09T06:13:08.461Z,7.60
2019-02-09T06:15:38.147Z,7.50
2019-02-09T06:18:07.828Z,7.50
2019-02-09T06:20:37.330Z,7.50
2019-02-09T06:23:07.508Z,7.50
2019-02-09T06:25:37.051Z,7.60
2019-02-09T06:28:06.797Z,7.60
2019-02-09T06:30:36.458Z,7.60
2019-02-09T06:33:06.189Z,7.50
2019-02-09T06:35:35.878Z,7.50
2019-02-09T06:38:05.594Z,7.50
2019-02-09T06:40:35.169Z,7.50
2019-02-09T06:43:05.115Z,7.50
2019-02-09T06:45:34.670Z,7.50
2019-02-09T06:48:26.765Z,7.40
2019-02-09T06:50:58.129Z,7.40
2019-02-09T06:53:27.739Z,7.40
2019-02-09T06:55:57.436Z,7.40
2019-02-09T06:58:27.110Z,7.40
2019-02-09T07:00:56.814Z,7.50
2019-02-09T07:03:26.520Z,7.40
2019-02-09T07:05:56.223Z,7.40
2019-02-09T07:08:25.929Z,7.50
2019-02-09T07:10:55.774Z,7.50
2019-02-09T07:13:25.338Z,7.50
2019-02-09T07:15:55.164Z,7.50
2019-02-09T07:18:24.756Z,7.50
2019-02-09T07:20:54.622Z,7.50
2019-02-09T07:23:24.290Z,7.60
2019-02-09T07:25:54.522Z,7.60
2019-02-09T07:28:24.222Z,7.60
2019-02-09T07:30:53.938Z,7.60
2019-02-09T07:33:23.669Z,7.70
2019-02-09T07:35:53.774Z,7.70
2019-02-09T07:38:23.363Z,7.70
2019-02-09T07:40:53.051Z,7.70
2019-02-09T07:43:22.854Z,7.70
2019-02-09T07:45:52.738Z,7.80
2019-02-09T07:48:22.238Z,7.80
2019-02-09T07:50:52.008Z,7.80
2019-02-09T07:53:21.647Z,7.80
2019-02-09T07:55:51.462Z,7.80
2019-02-09T07:58:21.040Z,7.90
2019-02-09T08:00:50.680Z,7.80
2019-02-09T08:03:20.439Z,7.90
2019-02-09T08:05:50.034Z,7.90
2019-02-09T08:08:19.726Z,7.90
2019-02-09T08:10:49.384Z,7.80
2019-02-09T08:13:18.965Z,7.80
2019-02-09T08:15:48.658Z,7.80
2019-02-09T08:18:18.326Z,7.90
2019-02-09T08:20:48.069Z,8.00
2019-02-09T08:23:17.743Z,8.10
2019-02-09T08:25:47.402Z,8.20
2019-02-09T08:28:17.138Z,8.20
2019-02-09T08:30:51.731Z,8.10
2019-02-09T08:33:21.480Z,8.10
2019-02-09T08:35:51.098Z,8.10
2019-02-09T08:38:20.933Z,8.20
2019-02-09T08:40:50.645Z,8.10
2019-02-09T08:43:20.312Z,8.10
2019-02-09T08:45:50.060Z,8.10
2019-02-09T08:48:19.704Z,8.20
2019-02-09T08:50:56.469Z,8.40
2019-02-09T08:53:26.163Z,8.30
2019-02-09T08:55:55.788Z,8.30
2019-02-09T08:58:25.474Z,8.20
2019-02-09T09:00:55.093Z,8.20
2019-02-09T09:03:24.808Z,8.20
2019-02-09T09:05:54.507Z,8.20
2019-02-09T09:08:24.294Z,8.20
2019-02-09T09:10:53.904Z,8.20
2019-02-09T09:13:23.478Z,8.20
2019-02-09T09:15:58.132Z,8.20
2019-02-09T09:18:27.686Z,8.20
2019-02-09T09:21:07.306Z,8.20
2019-02-09T09:23:36.977Z,8.20
2019-02-09T09:26:06.726Z,8.30
2019-02-09T09:28:36.557Z,8.30
2019-02-09T09:31:06.366Z,8.40
2019-02-09T09:33:36.067Z,8.50
2019-02-09T09:36:06.665Z,8.60
2019-02-09T09:38:36.449Z,8.60
2019-02-09T09:41:07.069Z,8.60
2019-02-09T09:43:36.743Z,8.60
2019-02-09T09:46:06.553Z,8.60
2019-02-09T09:48:36.459Z,8.70
2019-02-09T09:51:06.409Z,8.60
2019-02-09T09:53:35.994Z,8.60
2019-02-09T09:56:05.913Z,8.60
2019-02-09T09:58:35.394Z,8.70
2019-02-09T10:01:05.297Z,8.70
2019-02-09T10:03:34.853Z,8.60
2019-02-09T10:06:04.954Z,8.70
2019-02-09T10:08:34.771Z,8.90
2019-02-09T10:11:04.443Z,8.80
2019-02-09T10:13:34.186Z,8.80
2019-02-09T10:16:03.873Z,8.80
2019-02-09T10:18:36.920Z,8.80
2019-02-09T10:21:08.122Z,8.90
2019-02-09T10:23:37.884Z,8.90
2019-02-09T10:26:10.897Z,8.90
2019-02-09T10:28:40.503Z,9.00
2019-02-09T10:31:10.775Z,8.90
2019-02-09T10:33:40.322Z,8.80
2019-02-09T10:36:10.334Z,8.50
2019-02-09T10:38:39.946Z,8.40
2019-02-09T10:41:09.767Z,8.30
2019-02-09T10:43:39.562Z,8.20
2019-02-09T10:46:09.414Z,8.10
2019-02-09T10:48:39.003Z,8.00
2019-02-09T10:51:08.798Z,8.00
2019-02-09T10:53:38.528Z,8.20
2019-02-09T10:56:08.559Z,8.40
2019-02-09T10:58:38.217Z,8.50
2019-02-09T11:01:11.950Z,8.70
2019-02-09T11:03:41.569Z,8.90
2019-02-09T11:06:11.683Z,9.00
2019-02-09T11:08:41.378Z,9.10
2019-02-09T11:11:13.322Z,9.10
2019-02-09T11:13:43.166Z,9.10
2019-02-09T11:16:13.044Z,9.10
2019-02-09T11:18:42.622Z,9.10
2019-02-09T11:21:13.031Z,9.20
2019-02-09T11:23:42.708Z,9.30
2019-02-09T11:26:12.866Z,9.30
2019-02-09T11:28:42.517Z,9.20
2019-02-09T11:31:12.281Z,9.30
2019-02-09T11:33:42.133Z,9.30
2019-02-09T11:36:12.585Z,9.40
2019-02-09T11:38:42.490Z,9.40
2019-02-09T11:41:13.080Z,9.30
2019-02-09T11:43:42.930Z,9.30
2019-02-09T11:46:12.787Z,9.40
2019-02-09T11:48:42.874Z,9.50
2019-02-09T11:51:12.469Z,9.50
2019-02-09T11:53:42.601Z,9.70
2019-02-09T11:56:12.379Z,9.70
2019-02-09T11:58:42.052Z,9.60
2019-02-09T12:01:11.756Z,9.80
2019-02-09T12:03:41.358Z,9.60
2019-02-09T12:06:11.182Z,9.50
2019-02-09T12:08:40.735Z,9.60
2019-02-09T12:11:10.445Z,9.70
2019-02-09T12:13:40.188Z,9.60
2019-02-09T12:16:10.129Z,9.60
2019-02-09T12:18:39.686Z,9.50
2019-02-09T12:21:09.392Z,9.40
2019-02-09T12:23:38.968Z,9.30
2019-02-09T12:26:08.663Z,9.30
2019-02-09T12:28:38.251Z,9.40
2019-02-09T12:31:07.880Z,9.30
2019-02-09T12:33:37.718Z,9.20
2019-02-09T12:36:07.653Z,9.20
2019-02-09T12:38:37.968Z,9.30
2019-02-09T12:41:07.625Z,9.20
2019-02-09T12:43:37.690Z,9.30
2019-02-09T12:46:07.470Z,9.30
2019-02-09T12:48:37.261Z,9.20
2019-02-09T12:51:07.169Z,9.20
2019-02-09T12:53:36.744Z,9.30
2019-02-09T12:56:06.835Z,9.50
2019-02-09T12:58:36.490Z,9.50
2019-02-09T13:01:06.246Z,9.60
2019-02-09T13:03:35.884Z,9.70
2019-02-09T13:06:06.308Z,9.80
2019-02-09T13:08:35.924Z,9.80
2019-02-09T13:11:05.696Z,9.90
2019-02-09T13:13:35.296Z,9.90
2019-02-09T13:16:05.397Z,9.70
2019-02-09T13:18:35.071Z,9.80
2019-02-09T13:21:05.290Z,9.80
2019-02-09T13:23:35.001Z,9.80
2019-02-09T13:26:04.702Z,9.80
2019-02-09T13:28:34.345Z,9.70
2019-02-09T13:31:04.126Z,9.70
2019-02-09T13:33:38.825Z,9.70
2019-02-09T13:36:06.927Z,9.70
2019-02-09T13:38:36.714Z,9.70
2019-02-09T13:41:06.422Z,9.70
2019-02-09T13:43:36.711Z,9.70
2019-02-09T13:46:06.401Z,9.70
2019-02-09T13:48:36.400Z,9.70
2019-02-09T13:51:06.570Z,9.70
2019-02-09T13:53:36.285Z,9.60
2019-02-09T13:56:05.987Z,9.60
2019-02-09T13:58:35.741Z,9.40
2019-02-09T14:01:05.482Z,9.10
2019-02-09T14:03:35.163Z,8.80
2019-02-09T14:06:08.355Z,8.60
2019-02-09T14:08:36.626Z,8.60
2019-02-09T14:11:06.668Z,8.50
2019-02-09T14:13:36.586Z,8.60
2019-02-09T14:16:08.356Z,8.80
2019-02-09T14:18:37.804Z,8.90
2019-02-09T14:21:07.452Z,8.90
2019-02-09T14:23:37.222Z,8.90
2019-02-09T14:26:06.954Z,8.90
2019-02-09T14:28:36.687Z,8.80
2019-02-09T14:31:06.349Z,8.80
2019-02-09T14:33:36.124Z,8.80
2019-02-09T14:36:06.015Z,8.80
2019-02-09T14:38:35.712Z,8.90
2019-02-09T14:41:05.706Z,8.90
2019-02-09T14:43:35.362Z,9.00
2019-02-09T14:46:05.491Z,8.90
2019-02-09T14:48:35.434Z,8.90
2019-02-09T14:51:05.305Z,8.90
2019-02-09T14:53:35.100Z,8.90
2019-02-09T14:56:04.921Z,8.90
2019-02-09T14:58:34.634Z,8.80
2019-02-09T15:01:04.456Z,8.90
2019-02-09T15:03:34.205Z,8.80
2019-02-09T15:06:04.180Z,8.90
2019-02-09T15:08:33.811Z,8.80
2019-02-09T15:11:03.396Z,8.70
2019-02-09T15:13:33.017Z,8.80
2019-02-09T15:16:12.901Z,8.80
2019-02-09T15:18:42.607Z,8.80
2019-02-09T15:21:15.368Z,8.80
2019-02-09T15:23:45.860Z,8.80
2019-02-09T15:26:15.704Z,8.80
2019-02-09T15:28:46.873Z,8.80
2019-02-09T15:31:16.605Z,8.80
2019-02-09T15:33:46.900Z,8.70
2019-02-09T15:36:16.475Z,8.80
2019-02-09T15:38:46.366Z,8.80
2019-02-09T15:41:15.987Z,8.80
2019-02-09T15:43:45.709Z,8.80
2019-02-09T15:46:15.380Z,8.70
2019-02-09T15:48:45.545Z,8.60
2019-02-09T15:51:15.197Z,8.70
2019-02-09T15:53:44.840Z,8.70
2019-02-09T15:56:14.586Z,8.60
2019-02-09T15:58:44.308Z,8.60
2019-02-09T16:01:13.986Z,8.60
2019-02-09T16:03:43.745Z,8.70
2019-02-09T16:06:13.735Z,8.70
2019-02-09T16:08:43.408Z,8.60
2019-02-09T16:11:13.415Z,8.60
2019-02-09T16:13:45.726Z,8.60
2019-02-09T16:16:14.704Z,8.50
2019-02-09T16:18:44.470Z,8.40
2019-02-09T16:21:14.018Z,8.30
2019-02-09T16:23:43.830Z,8.20
2019-02-09T16:26:13.596Z,8.10
2019-02-09T16:28:43.248Z,8.00
2019-02-09T16:31:12.909Z,8.00
2019-02-09T16:33:42.705Z,8.00
2019-02-09T16:36:12.521Z,8.00
2019-02-09T16:38:42.187Z,8.00
2019-02-09T16:41:11.905Z,7.90
2019-02-09T16:43:41.873Z,8.00
2019-02-09T16:46:11.639Z,7.90
2019-02-09T16:48:42.307Z,7.90
2019-02-09T16:51:12.076Z,7.80
2019-02-09T16:53:41.795Z,7.80
2019-02-09T16:56:11.538Z,7.80
2019-02-09T16:58:41.421Z,7.80
2019-02-09T17:01:11.321Z,7.70
2019-02-09T17:03:41.001Z,7.70
2019-02-09T17:06:10.915Z,7.60
2019-02-09T17:08:40.834Z,7.50
2019-02-09T17:11:10.671Z,7.50
2019-02-09T17:13:40.380Z,7.40
2019-02-09T17:16:10.240Z,7.40
2019-02-09T17:18:39.900Z,7.40
2019-02-09T17:21:09.635Z,7.30
2019-02-09T17:23:39.318Z,7.30
2019-02-09T17:26:09.307Z,7.30
2019-02-09T17:28:39.145Z,7.20
2019-02-09T17:31:08.823Z,7.20
2019-02-09T17:33:38.599Z,7.30
2019-02-09T17:36:08.281Z,7.30
2019-02-09T17:38:38.104Z,7.40
2019-02-09T17:41:07.835Z,7.40
2019-02-09T17:43:37.570Z,7.40
2019-02-09T17:46:12.892Z,7.30
2019-02-09T17:48:42.605Z,7.30
2019-02-09T17:51:12.293Z,7.30
2019-02-09T17:53:42.232Z,7.20
2019-02-09T17:56:11.974Z,7.30
2019-02-09T17:58:41.620Z,7.30
2019-02-09T18:01:12.454Z,7.30
2019-02-09T18:03:42.393Z,7.20
2019-02-09T18:06:12.130Z,7.20
2019-02-09T18:08:42.079Z,7.10
2019-02-09T18:11:12.031Z,7.10
2019-02-09T18:13:41.947Z,7.10
2019-02-09T18:16:11.558Z,7.20
2019-02-09T18:18:41.228Z,7.20
2019-02-09T18:21:11.219Z,7.30
2019-02-09T18:23:41.031Z,7.30
2019-02-09T18:26:10.737Z,7.30
2019-02-09T18:28:40.421Z,7.40
2019-02-09T18:31:10.114Z,7.40
2019-02-09T18:33:40.049Z,7.50
2019-02-09T18:36:10.174Z,7.40
2019-02-09T18:38:41.202Z,7.40
2019-02-09T18:41:10.989Z,7.40
2019-02-09T18:43:40.674Z,7.40
2019-02-09T18:46:10.473Z,7.50
2019-02-09T18:48:40.152Z,7.50
2019-02-09T18:51:09.828Z,7.60
2019-02-09T18:53:39.511Z,7.60
2019-02-09T18:56:09.298Z,7.60
2019-02-09T18:58:38.951Z,7.70
2019-02-09T19:01:08.963Z,7.70
2019-02-09T19:03:38.604Z,7.80
2019-02-09T19:06:08.464Z,7.80
2019-02-09T19:08:38.276Z,7.80
2019-02-09T19:11:08.103Z,7.80
2019-02-09T19:13:37.825Z,7.80
2019-02-09T19:16:08.678Z,7.80
2019-02-09T19:18:38.780Z,7.90
2019-02-09T19:21:10.710Z,7.80
2019-02-09T19:23:40.402Z,7.80
2019-02-09T19:26:10.297Z,7.70
2019-02-09T19:28:40.148Z,7.60
2019-02-09T19:31:10.258Z,7.50
2019-02-09T19:33:39.833Z,7.50
2019-02-09T19:36:09.967Z,7.40
2019-02-09T19:38:39.663Z,7.30
2019-02-09T19:41:09.357Z,7.40
2019-02-09T19:43:39.178Z,7.30
2019-02-09T19:46:09.814Z,7.30
2019-02-09T19:48:39.504Z,7.20
2019-02-09T19:51:09.227Z,7.30
2019-02-09T19:53:41.218Z,7.40
2019-02-09T19:56:10.426Z,7.40
2019-02-09T19:58:41.245Z,7.40
2019-02-09T20:01:11.064Z,7.50
2019-02-09T20:03:40.714Z,7.60
2019-02-09T20:06:10.442Z,7.70
2019-02-09T20:08:40.146Z,7.70
2019-02-09T20:11:09.895Z,7.80
2019-02-09T20:13:39.995Z,7.80
2019-02-09T20:16:09.592Z,7.80
2019-02-09T20:18:39.307Z,7.70
2019-02-09T20:21:09.019Z,7.80
2019-02-09T20:23:39.832Z,7.70
2019-02-09T20:26:09.577Z,7.70
2019-02-09T20:28:39.204Z,7.70
2019-02-09T20:31:08.948Z,7.60
2019-02-09T20:33:38.591Z,7.60
2019-02-09T20:36:08.258Z,7.60
2019-02-09T20:38:38.024Z,7.60
2019-02-09T20:41:07.809Z,7.60
2019-02-09T20:43:37.419Z,7.60
2019-02-09T20:46:07.147Z,7.70
2019-02-09T20:48:36.823Z,7.70
2019-02-09T20:51:07.507Z,7.80
2019-02-09T20:53:37.237Z,7.80
2019-02-09T20:56:07.284Z,7.80
2019-02-09T20:58:36.903Z,7.80
2019-02-09T21:01:06.714Z,7.80
2019-02-09T21:03:36.638Z,7.80
2019-02-09T21:06:06.465Z,7.80
2019-02-09T21:08:36.113Z,7.80
2019-02-09T21:11:06.092Z,7.80
2019-02-09T21:13:35.803Z,7.80
2019-02-09T21:16:05.776Z,7.80
2019-02-09T21:18:35.424Z,7.80
2019-02-09T21:21:05.113Z,7.90
2019-02-09T21:23:34.849Z,7.90
2019-02-09T21:26:04.883Z,7.90
2019-02-09T21:28:35.112Z,7.90
2019-02-09T21:31:24.478Z,7.90
2019-02-09T21:33:54.564Z,7.80
2019-02-09T21:36:24.472Z,7.80
2019-02-09T21:38:54.177Z,7.80
2019-02-09T21:41:24.200Z,7.80
2019-02-09T21:43:53.900Z,7.80
2019-02-09T21:46:23.883Z,7.80
2019-02-09T21:48:53.772Z,7.80
2019-02-09T21:51:23.497Z,7.80
2019-02-09T21:53:53.192Z,7.80
2019-02-09T21:56:22.897Z,7.80
2019-02-09T21:58:52.831Z,7.80
2019-02-09T22:01:22.547Z,7.80
2019-02-09T22:03:52.386Z,7.90
2019-02-09T22:06:22.335Z,7.90
2019-02-09T22:08:51.886Z,7.90
2019-02-09T22:11:21.681Z,7.90
2019-02-09T22:13:51.368Z,7.90
2019-02-09T22:16:21.147Z,7.90
2019-02-09T22:18:51.021Z,7.90
2019-02-09T22:21:20.972Z,7.90
2019-02-09T22:23:50.702Z,7.90
2019-02-09T22:26:21.993Z,7.90
2019-02-09T22:28:52.163Z,7.90
2019-02-09T22:31:22.459Z,7.90
2019-02-09T22:33:52.117Z,7.80
2019-02-09T22:36:21.791Z,7.80
2019-02-09T22:38:51.363Z,7.80
2019-02-09T22:41:20.990Z,7.80
2019-02-09T22:43:50.738Z,7.90
2019-02-09T22:46:20.527Z,7.90
2019-02-09T22:48:50.141Z,7.90
2019-02-09T22:51:19.913Z,7.80
2019-02-09T22:53:50.078Z,7.80
2019-02-09T22:56:19.856Z,7.80
2019-02-09T22:58:49.879Z,7.80
2019-02-09T23:01:36.283Z,7.80
2019-02-09T23:04:26.012Z,7.80
2019-02-09T23:07:02.480Z,7.80
2019-02-09T23:09:32.266Z,7.80
2019-02-09T23:12:02.177Z,7.70
2019-02-09T23:14:32.250Z,7.70
2019-02-09T23:17:02.222Z,7.70
2019-02-09T23:19:32.256Z,7.70
2019-02-09T23:22:01.745Z,7.70
2019-02-09T23:24:31.536Z,7.60
2019-02-09T23:27:01.095Z,7.60
2019-02-09T23:29:30.948Z,7.60
2019-02-09T23:32:00.536Z,7.60
2019-02-09T23:34:30.307Z,7.50
2019-02-09T23:36:59.951Z,7.50
2019-02-09T23:39:29.697Z,7.50
2019-02-09T23:41:59.381Z,7.50
2019-02-09T23:44:29.316Z,7.40
2019-02-09T23:46:58.950Z,7.30
2019-02-09T23:49:28.627Z,7.40
2019-02-09T23:51:58.293Z,7.30
2019-02-09T23:54:28.675Z,7.40
2019-02-09T23:56:58.475Z,7.40
2019-02-09T23:59:28.422Z,7.30
